Time;durP1;ratioP1;P1;durP2;ratioP2;P2;SDS_P1;SDS_P2;PMS_P1;PMS_P2;Temp;Humidity;BMP_temperature;BMP_pressure;BME280_temperature;BME280_humidity;BME280_pressure;Samples;Min_cycle;Max_cycle;Signal;HPM_P1;HPM_P2
2022/05/09 00:00:35;;;;;;;7.07;2.13;;;;;;;8.10;100.00;102945.97;5051376;28;20081;-30
2022/05/09 00:03:03;;;;;;;8.30;2.15;;;;;;;8.07;100.00;102945.56;5052206;28;20044;-34
2022/05/09 00:05:31;;;;;;;9.25;2.58;;;;;;;8.04;100.00;102946.03;5051905;28;20045;-29
2022/05/09 00:08:00;;;;;;;8.32;2.22;;;;;;;8.03;100.00;102947.09;5050876;28;20098;-32
2022/05/09 00:10:28;;;;;;;7.95;2.08;;;;;;;8.01;100.00;102946.47;5049648;28;20049;-33
2022/05/09 00:12:56;;;;;;;7.45;1.60;;;;;;;7.99;100.00;102943.09;5049884;28;20049;-31
2022/05/09 00:15:24;;;;;;;6.25;2.03;;;;;;;7.97;100.00;102939.72;5049075;28;20041;-33
2022/05/09 00:17:51;;;;;;;4.45;1.58;;;;;;;7.94;100.00;102936.31;5050589;28;20045;-31
2022/05/09 00:20:19;;;;;;;9.00;2.00;;;;;;;7.92;100.00;102934.84;5049730;28;20041;-31
2022/05/09 00:22:50;;;;;;;8.13;2.05;;;;;;;7.91;100.00;102930.34;5050325;28;20064;-26
2022/05/09 00:25:21;;;;;;;8.35;2.40;;;;;;;7.89;100.00;102930.59;5050948;28;20053;-33
2022/05/09 00:27:49;;;;;;;5.35;1.60;;;;;;;7.86;100.00;102932.97;5053071;28;20061;-29
2022/05/09 00:30:18;;;;;;;8.68;2.45;;;;;;;7.84;100.00;102929.56;5055549;28;20041;-26
2022/05/09 00:32:46;;;;;;;6.82;1.50;;;;;;;7.81;100.00;102925.31;5055512;28;20049;-31
2022/05/09 00:35:15;;;;;;;7.70;2.00;;;;;;;7.81;100.00;102924.47;5053860;28;20538;-31
2022/05/09 00:37:43;;;;;;;6.60;1.90;;;;;;;7.78;100.00;102917.47;5055516;28;20048;-36
2022/05/09 00:40:13;;;;;;;4.88;1.73;;;;;;;7.77;100.00;102921.31;5055577;28;20045;-28
2022/05/09 00:42:46;;;;;;;7.32;1.65;;;;;;;7.77;100.00;102923.25;5054741;28;20072;-32
2022/05/09 00:45:15;;;;;;;10.43;2.30;;;;;;;7.74;100.00;102919.00;5055523;28;20446;-29
2022/05/09 00:47:44;;;;;;;9.15;1.83;;;;;;;7.75;100.00;102920.69;5055337;28;20300;-29
2022/05/09 00:50:16;;;;;;;8.95;1.95;;;;;;;7.73;100.00;102916.44;5054240;28;20053;-30
2022/05/09 00:52:49;;;;;;;7.60;2.08;;;;;;;7.72;100.00;102911.97;5055451;28;20475;-31
2022/05/09 00:55:20;;;;;;;9.63;2.17;;;;;;;7.69;100.00;102916.03;5055185;28;20045;-28
2022/05/09 00:57:57;;;;;;;7.03;1.70;;;;;;;7.68;100.00;102907.94;5055103;28;20518;-30
2022/05/09 01:00:25;;;;;;;5.90;1.58;;;;;;;7.65;100.00;102906.47;5055221;28;20049;-32
2022/05/09 01:02:59;;;;;;;7.20;2.15;;;;;;;7.66;100.00;102907.31;5054715;28;20088;-27
2022/05/09 01:05:28;;;;;;;9.45;2.10;;;;;;;7.64;100.00;102904.75;5055272;28;20048;-28
2022/05/09 01:07:57;;;;;;;10.07;2.28;;;;;;;7.63;100.00;102905.84;5055099;28;20049;-34
2022/05/09 01:10:28;;;;;;;6.72;1.73;;;;;;;7.61;100.00;102906.06;5054369;28;20078;-30
2022/05/09 01:13:00;;;;;;;6.05;1.90;;;;;;;7.59;100.00;102904.63;5054801;28;20049;-32
2022/05/09 01:15:28;;;;;;;7.00;1.50;;;;;;;7.57;100.00;102904.00;5055166;28;20067;-32
2022/05/09 01:17:56;;;;;;;6.63;1.77;;;;;;;7.55;100.00;102900.59;5054226;28;20139;-30
2022/05/09 01:20:24;;;;;;;7.60;1.75;;;;;;;7.54;100.00;102898.91;5054988;28;20048;-33
2022/05/09 01:22:57;;;;;;;7.03;1.85;;;;;;;7.52;100.00;102889.94;5054791;28;20049;-37
2022/05/09 01:25:24;;;;;;;6.70;1.75;;;;;;;7.50;100.00;102897.66;5054068;28;20071;-28
2022/05/09 01:27:52;;;;;;;4.97;1.48;;;;;;;7.48;100.00;102897.03;5054857;28;20056;-32
2022/05/09 01:30:23;;;;;;;3.70;1.40;;;;;;;7.46;100.00;102893.63;5053327;28;20049;-32
2022/05/09 01:32:56;;;;;;;7.05;1.90;;;;;;;7.45;100.00;102886.38;5053622;28;20052;-34
2022/05/09 01:35:29;;;;;;;4.88;1.27;;;;;;;7.43;100.00;102886.59;5054578;28;20041;-31
2022/05/09 01:38:09;;;;;;;6.20;1.33;;;;;;;7.42;100.00;102892.38;5053692;28;20049;-34
2022/05/09 01:40:37;;;;;;;7.28;1.70;;;;;;;7.35;100.00;102878.56;5054529;28;20048;-32
2022/05/09 01:43:05;;;;;;;4.63;1.23;;;;;;;7.35;100.00;102880.50;5054287;28;20045;-29
2022/05/09 01:45:33;;;;;;;5.47;1.48;;;;;;;7.32;100.00;102875.41;5053514;28;20072;-30
2022/05/09 01:50:46;;;;;;;4.97;1.50;;;;;;;7.26;100.00;102886.34;5054277;28;20045;-34
2022/05/09 01:53:15;;;;;;;3.72;1.02;;;;;;;7.24;100.00;102884.84;5053374;28;20048;-30
2022/05/09 01:55:43;;;;;;;5.60;1.30;;;;;;;7.20;100.00;102886.38;5054412;28;20063;-34
2022/05/09 01:58:10;;;;;;;2.58;0.90;;;;;;;7.17;100.00;102886.88;5054348;28;20055;-30
2022/05/09 02:00:42;;;;;;;3.05;1.17;;;;;;;7.14;100.00;102887.31;5053279;28;20494;-29
2022/05/09 02:03:10;;;;;;;2.65;0.80;;;;;;;7.08;100.00;102886.28;5069234;28;20110;-33
2022/05/09 02:05:38;;;;;;;3.75;1.30;;;;;;;7.04;100.00;102878.63;5053907;28;20055;-29
2022/05/09 02:08:06;;;;;;;6.68;1.33;;;;;;;7.01;100.00;102888.25;5053941;28;20056;-30
2022/05/09 02:10:37;;;;;;;3.72;0.90;;;;;;;6.96;100.00;102877.00;5053937;28;20147;-30
2022/05/09 02:13:04;;;;;;;8.48;1.30;;;;;;;6.93;100.00;102871.91;5053160;28;20078;-29
2022/05/09 02:15:32;;;;;;;5.88;1.33;;;;;;;6.91;100.00;102874.03;5053520;28;20053;-32
2022/05/09 02:18:01;;;;;;;5.13;1.48;;;;;;;6.90;100.00;102873.19;5053662;28;20052;-36
2022/05/09 02:20:29;;;;;;;5.10;1.30;;;;;;;6.89;100.00;102873.41;5052996;28;20045;-30
2022/05/09 02:22:56;;;;;;;7.32;1.52;;;;;;;6.87;100.00;102875.56;5053694;28;20494;-25
2022/05/09 02:25:29;;;;;;;3.90;1.42;;;;;;;6.86;100.00;102877.50;5053512;28;20380;-35
2022/05/09 02:27:58;;;;;;;8.07;1.92;;;;;;;6.83;100.00;102872.38;5052653;28;20081;-29
2022/05/09 02:30:26;;;;;;;3.30;1.30;;;;;;;6.82;100.00;102865.13;5053576;28;20048;-30
2022/05/09 02:32:54;;;;;;;5.68;1.60;;;;;;;6.82;100.00;102864.28;5053148;28;20053;-26
2022/05/09 02:35:23;;;;;;;9.65;2.00;;;;;;;6.81;100.00;102868.97;5052571;28;20041;-25
2022/05/09 02:37:52;;;;;;;8.48;1.70;;;;;;;6.81;100.00;102865.34;5053117;28;20037;-31
2022/05/09 02:40:21;;;;;;;5.45;1.63;;;;;;;6.81;100.00;102857.03;5053128;28;20076;-29
2022/05/09 02:42:49;;;;;;;5.45;1.20;;;;;;;6.81;100.00;102859.81;5052415;28;20048;-34
2022/05/09 02:45:18;;;;;;;3.63;1.10;;;;;;;6.79;100.00;102859.22;5068926;28;20059;-33
2022/05/09 02:47:46;;;;;;;5.75;1.60;;;;;;;6.77;100.00;102859.44;5068531;28;20045;-34
2022/05/09 02:50:15;;;;;;;7.38;1.52;;;;;;;6.78;100.00;102857.50;5051853;28;20513;-30
2022/05/09 02:52:43;;;;;;;6.13;1.42;;;;;;;6.77;100.00;102853.88;5052999;28;20107;-31
2022/05/09 02:55:12;;;;;;;3.75;1.20;;;;;;;6.76;100.00;102849.41;5052011;28;20106;-31
2022/05/09 02:57:40;;;;;;;8.68;1.30;;;;;;;6.76;100.00;102851.34;5053011;28;20053;-28
2022/05/09 03:00:11;;;;;;;7.93;1.75;;;;;;;6.75;100.00;102856.03;5052975;28;20055;-24
2022/05/09 03:02:41;;;;;;;8.98;1.95;;;;;;;6.75;100.00;102855.19;5052202;28;20095;-31
2022/05/09 03:05:08;;;;;;;4.40;1.60;;;;;;;6.75;100.00;102839.38;5052643;28;20433;-33
2022/05/09 03:07:36;;;;;;;6.80;1.70;;;;;;;6.77;100.00;102837.25;5052518;28;20051;-32
2022/05/09 03:10:10;;;;;;;5.35;1.60;;;;;;;6.79;100.00;102837.00;5052241;28;20342;-30
2022/05/09 03:12:37;;;;;;;4.65;1.50;;;;;;;6.78;100.00;102832.53;5052690;28;20044;-29
2022/05/09 03:15:06;;;;;;;6.15;1.48;;;;;;;6.80;100.00;102833.13;5052694;28;20049;-32
2022/05/09 03:17:34;;;;;;;9.40;2.38;;;;;;;6.80;100.00;102833.13;5051502;28;20513;-32
2022/05/09 03:20:04;;;;;;;6.65;1.60;;;;;;;6.82;100.00;102831.84;5052283;28;20045;-29
2022/05/09 03:22:32;;;;;;;6.85;2.10;;;;;;;6.82;100.00;102830.97;5052639;28;20194;-32
2022/05/09 03:25:00;;;;;;;6.05;1.80;;;;;;;6.82;100.00;102822.66;5051782;28;20057;-32
2022/05/09 03:27:28;;;;;;;6.22;1.75;;;;;;;6.82;100.00;102822.66;5052369;28;20072;-32
2022/05/09 03:29:55;;;;;;;10.10;1.90;;;;;;;6.83;100.00;102818.81;5052262;28;20067;-32
2022/05/09 03:32:23;;;;;;;5.28;1.73;;;;;;;6.84;100.00;102814.97;5051191;28;20060;-26
2022/05/09 03:34:51;;;;;;;6.63;1.85;;;;;;;6.85;100.00;102813.88;5050040;28;20049;-29
2022/05/09 03:37:20;;;;;;;10.45;2.92;;;;;;;6.86;100.00;102816.44;5050059;28;20064;-32
2022/05/09 03:39:47;;;;;;;7.05;2.05;;;;;;;6.87;100.00;102814.50;5060860;28;20040;-27
2022/05/09 03:42:15;;;;;;;5.45;1.63;;;;;;;6.87;100.00;102807.03;5063706;28;20102;-30
2022/05/09 03:44:43;;;;;;;6.35;1.70;;;;;;;6.87;100.00;102806.19;5060116;28;20040;-34
2022/05/09 03:47:11;;;;;;;4.15;1.33;;;;;;;6.86;100.00;102818.38;5063527;28;20048;-26
2022/05/09 03:49:38;;;;;;;6.57;1.67;;;;;;;6.85;100.00;102808.34;5060901;28;20057;-27
2022/05/09 03:52:06;;;;;;;6.40;2.08;;;;;;;6.85;100.00;102803.63;5063082;28;20082;-29
2022/05/09 03:54:35;;;;;;;9.77;2.45;;;;;;;6.85;100.00;102806.41;5060659;28;20053;-31
2022/05/09 03:57:06;;;;;;;15.48;2.80;;;;;;;6.85;100.00;102806.41;5062745;28;20055;-31
2022/05/09 03:59:34;;;;;;;6.82;1.80;;;;;;;6.87;100.00;102803.41;5059709;28;20049;-30
2022/05/09 04:02:01;;;;;;;8.85;2.45;;;;;;;6.86;100.00;102797.00;5063104;28;20053;-31
2022/05/09 04:04:29;;;;;;;9.23;2.28;;;;;;;6.87;100.00;102795.09;5061242;28;20552;-34
2022/05/09 04:06:57;;;;;;;7.32;2.47;;;;;;;6.87;100.00;102789.53;5062938;28;20033;-26
2022/05/09 04:09:25;;;;;;;4.85;1.85;;;;;;;6.87;100.00;102784.00;5063044;28;20512;-30
2022/05/09 04:11:54;;;;;;;10.05;2.65;;;;;;;6.88;100.00;102777.38;5075304;28;20540;-30
2022/05/09 04:16:49;;;;;;;12.95;2.67;;;;;;;6.89;100.00;102782.69;5062202;28;20056;-31
2022/05/09 04:17:10;;;;;;;6.47;1.90;;;;;;;6.90;100.00;102770.50;5062685;28;20070;-30
2022/05/09 04:19:38;;;;;;;10.93;3.47;;;;;;;6.94;100.00;102772.84;5062955;28;20502;-30
2022/05/09 04:22:06;;;;;;;11.80;3.00;;;;;;;6.96;100.00;102777.09;5052710;28;20040;-31
2022/05/09 04:24:34;;;;;;;9.52;2.38;;;;;;;6.96;100.00;102768.75;5062219;28;20052;-29
2022/05/09 04:27:06;;;;;;;12.55;2.45;;;;;;;6.98;100.00;102768.53;5057533;28;20055;-30
2022/05/09 04:29:34;;;;;;;7.82;2.75;;;;;;;6.98;100.00;102774.94;5062733;28;20049;-31
2022/05/09 04:32:03;;;;;;;7.10;2.00;;;;;;;7.00;100.00;102774.69;5063267;28;20076;-32
2022/05/09 04:34:30;;;;;;;4.93;1.80;;;;;;;7.01;100.00;102773.59;5062532;28;20053;-33
2022/05/09 04:36:58;;;;;;;6.22;1.77;;;;;;;7.02;100.00;102780.84;5063092;28;20051;-25
2022/05/09 04:39:26;;;;;;;9.02;2.47;;;;;;;7.00;100.00;102778.31;5062926;28;20056;-33
2022/05/09 04:41:56;;;;;;;7.30;2.00;;;;;;;7.02;100.00;102770.59;5061252;28;20127;-32
2022/05/09 04:44:25;;;;;;;8.80;2.28;;;;;;;7.03;100.00;102766.75;5059415;28;20056;-26
2022/05/09 04:46:53;;;;;;;6.15;2.05;;;;;;;7.06;100.00;102766.28;5059489;28;20049;-31
2022/05/09 04:49:20;;;;;;;7.00;2.22;;;;;;;7.08;100.00;102763.28;5055937;28;20502;-35
2022/05/09 04:51:48;;;;;;;6.78;2.42;;;;;;;7.10;100.00;102762.00;5059368;28;20135;-30
2022/05/09 04:54:16;;;;;;;7.55;2.55;;;;;;;7.13;100.00;102758.75;5057010;28;20122;-32
2022/05/09 04:56:44;;;;;;;6.60;2.10;;;;;;;7.16;100.00;102763.84;5058730;28;20498;-31
2022/05/09 04:59:11;;;;;;;10.15;2.72;;;;;;;7.20;100.00;102767.84;5056992;28;20049;-29
2022/05/09 05:01:41;;;;;;;9.70;2.97;;;;;;;7.25;100.00;102761.59;5059252;28;20412;-28
2022/05/09 05:04:10;;;;;;;8.75;2.92;;;;;;;7.29;100.00;102764.78;5054677;28;20087;-32
2022/05/09 05:06:38;;;;;;;9.50;2.63;;;;;;;7.33;100.00;102771.56;5060027;28;20139;-35
2022/05/09 05:09:05;;;;;;;12.77;3.45;;;;;;;7.38;100.00;102771.75;5056034;28;20091;-32
2022/05/09 05:11:33;;;;;;;10.45;3.00;;;;;;;7.44;100.00;102768.00;5057859;28;20041;-31
2022/05/09 05:14:01;;;;;;;10.52;3.50;;;;;;;7.49;100.00;102765.41;5059037;28;20049;-30
2022/05/09 05:19:20;;;;;;;8.13;2.90;;;;;;;7.59;100.00;102766.53;5060554;28;20036;-29
2022/05/09 05:21:47;;;;;;;12.30;3.28;;;;;;;7.66;100.00;102760.91;5058333;28;20490;-27
2022/05/09 05:24:19;;;;;;;9.90;2.73;;;;;;;7.70;100.00;102764.91;5059871;28;20053;-28
2022/05/09 05:26:47;;;;;;;13.23;3.50;;;;;;;7.76;100.00;102763.16;5060825;28;20402;-29
2022/05/09 05:29:15;;;;;;;12.73;3.50;;;;;;;7.83;100.00;102756.41;5073061;28;20045;-33
2022/05/09 05:31:44;;;;;;;8.32;3.45;;;;;;;7.92;100.00;102757.78;5059740;28;20064;-31
2022/05/09 05:34:11;;;;;;;11.73;3.90;;;;;;;8.00;100.00;102764.06;5065566;28;20483;-28
2022/05/09 05:36:41;;;;;;;12.32;3.58;;;;;;;8.08;100.00;102758.19;5063582;28;20095;-34
2022/05/09 05:39:09;;;;;;;10.60;3.53;;;;;;;8.14;100.00;102752.53;5060777;28;20051;-35
2022/05/09 05:41:38;;;;;;;12.15;3.70;;;;;;;8.21;100.00;102756.06;5054960;28;20055;-33
2022/05/09 05:44:08;;;;;;;11.07;3.53;;;;;;;8.30;100.00;102751.00;5058703;28;20051;-34
2022/05/09 05:46:36;;;;;;;13.88;4.20;;;;;;;8.38;100.00;102759.06;5061332;28;20159;-37
2022/05/09 05:49:04;;;;;;;11.88;3.42;;;;;;;8.48;100.00;102758.47;5062047;28;20143;-31
2022/05/09 05:51:32;;;;;;;11.18;3.13;;;;;;;8.55;100.00;102765.63;5063443;28;20059;-29
2022/05/09 05:54:01;;;;;;;13.05;3.08;;;;;;;8.65;100.00;102765.03;5049151;28;20102;-28
2022/05/09 05:56:29;;;;;;;8.43;2.70;;;;;;;8.74;100.00;102757.19;5064003;28;20050;-32
2022/05/09 05:58:56;;;;;;;10.18;3.58;;;;;;;8.81;100.00;102764.31;5059785;28;20043;-30
2022/05/09 06:01:24;;;;;;;9.48;3.10;;;;;;;8.92;100.00;102754.28;5063086;28;20150;-30
2022/05/09 06:04:07;;;;;;;9.07;3.08;;;;;;;9.03;100.00;102759.00;5059889;28;20107;-32
2022/05/09 06:06:35;;;;;;;9.40;3.35;;;;;;;9.10;100.00;102756.09;5067573;28;20155;-29
2022/05/09 06:09:05;;;;;;;10.63;3.22;;;;;;;9.22;100.00;102760.56;5060850;28;20056;-34
2022/05/09 06:11:33;;;;;;;9.27;3.40;;;;;;;9.34;100.00;102757.78;5064868;28;20041;-32
2022/05/09 06:14:03;;;;;;;12.73;3.10;;;;;;;9.48;100.00;102769.47;5061382;28;20060;-30
2022/05/09 06:16:31;;;;;;;14.57;3.58;;;;;;;9.64;100.00;102763.13;5065023;28;20052;-32
2022/05/09 06:19:00;;;;;;;8.60;3.08;;;;;;;9.76;100.00;102765.91;5061032;28;20045;-35
2022/05/09 06:21:28;;;;;;;12.65;3.63;;;;;;;9.91;100.00;102760.63;5049949;28;20044;-29
2022/05/09 06:23:57;;;;;;;12.18;3.20;;;;;;;10.14;100.00;102759.69;5060563;28;20044;-33
2022/05/09 06:26:27;;;;;;;15.55;3.50;;;;;;;10.37;100.00;102756.81;5056856;28;20037;-35
2022/05/09 06:28:55;;;;;;;8.10;3.03;;;;;;;10.74;100.00;102761.91;5058648;28;20455;-33
2022/05/09 06:31:24;;;;;;;8.52;3.42;;;;;;;11.08;100.00;102763.56;5058625;28;20493;-27
2022/05/09 06:33:52;;;;;;;9.82;3.33;;;;;;;11.43;100.00;102762.38;5047081;28;20377;-33
2022/05/09 06:36:20;;;;;;;12.45;3.30;;;;;;;11.82;100.00;102766.84;5064440;28;20049;-36
2022/05/09 06:38:48;;;;;;;13.02;2.97;;;;;;;12.23;100.00;102765.38;5056465;28;20083;-32
2022/05/09 06:41:16;;;;;;;9.15;3.03;;;;;;;12.79;100.00;102762.28;5054549;28;20053;-32
2022/05/09 06:43:47;;;;;;;10.27;2.90;;;;;;;13.19;100.00;102767.34;5059096;28;20057;-34
2022/05/09 06:46:14;;;;;;;7.47;2.60;;;;;;;13.58;99.98;102762.25;5059797;28;20063;-37
2022/05/09 06:48:42;;;;;;;11.15;3.00;;;;;;;13.82;96.61;102762.63;5059366;28;20135;-30
2022/05/09 06:51:10;;;;;;;10.07;3.00;;;;;;;14.13;94.64;102756.84;5062143;28;20152;-28
2022/05/09 06:53:38;;;;;;;8.68;2.30;;;;;;;14.69;94.99;102765.38;5060409;28;20074;-33
2022/05/09 06:56:07;;;;;;;14.80;3.42;;;;;;;15.19;89.07;102766.44;5062099;28;20517;-29
2022/05/09 06:58:37;;;;;;;10.18;2.92;;;;;;;15.49;86.88;102763.56;5059885;28;20472;-33
2022/05/09 07:01:14;;;;;;;9.82;2.83;;;;;;;15.81;81.88;102768.81;5062147;28;20056;-40
2022/05/09 07:03:42;;;;;;;9.38;2.38;;;;;;;16.18;81.53;102761.91;5058490;28;20429;-35
2022/05/09 07:06:10;;;;;;;11.25;3.30;;;;;;;16.56;78.02;102771.50;5061554;28;20059;-30
2022/05/09 07:08:39;;;;;;;9.10;2.78;;;;;;;16.64;75.17;102762.44;5058313;28;20052;-30
2022/05/09 07:11:07;;;;;;;6.88;2.30;;;;;;;17.05;74.97;102756.44;5062552;28;20045;-32
2022/05/09 07:13:41;;;;;;;7.18;2.45;;;;;;;17.46;72.54;102759.66;5059931;28;20103;-32
2022/05/09 07:16:09;;;;;;;11.25;2.63;;;;;;;18.01;71.37;102758.16;5061940;28;20049;-34
2022/05/09 07:18:39;;;;;;;9.13;3.17;;;;;;;18.71;68.20;102760.25;5059704;28;20048;-33
2022/05/09 07:21:07;;;;;;;7.80;2.20;;;;;;;19.27;65.11;102758.09;5059257;28;20056;-34
2022/05/09 07:23:36;;;;;;;9.00;2.28;;;;;;;19.30;61.54;102756.63;5063878;28;20446;-33
2022/05/09 07:26:03;;;;;;;9.02;2.53;;;;;;;19.14;60.17;102763.75;5063349;28;20048;-33
2022/05/09 07:28:31;;;;;;;6.60;2.60;;;;;;;18.93;60.09;102755.63;5064663;28;20053;-32
2022/05/09 07:31:00;;;;;;;7.05;2.55;;;;;;;18.99;59.69;102755.50;5064021;28;20068;-31
2022/05/09 07:33:29;;;;;;;6.78;2.45;;;;;;;19.18;59.91;102756.31;5064455;28;20045;-28
2022/05/09 07:35:58;;;;;;;8.23;2.40;;;;;;;19.41;58.57;102748.78;5063137;28;20049;-33
2022/05/09 07:38:26;;;;;;;8.05;2.63;;;;;;;19.77;57.73;102748.94;5057056;28;20056;-36
2022/05/09 07:40:54;;;;;;;8.10;2.70;;;;;;;19.99;56.29;102750.97;5060109;28;20044;-36
2022/05/09 07:43:25;;;;;;;10.18;2.47;;;;;;;20.32;55.49;102755.34;5058517;28;20045;-32
2022/05/09 07:45:55;;;;;;;10.23;2.40;;;;;;;20.74;54.15;102756.06;5059335;28;20045;-35
2022/05/09 07:48:24;;;;;;;7.50;2.35;;;;;;;20.92;52.59;102749.34;5059381;28;20420;-34
2022/05/09 07:50:53;;;;;;;9.05;2.70;;;;;;;21.02;52.02;102751.06;5058061;28;20045;-30
2022/05/09 07:53:25;;;;;;;9.68;2.50;;;;;;;21.46;51.63;102739.63;5060581;28;20063;-37
2022/05/09 07:55:54;;;;;;;7.03;2.80;;;;;;;21.89;50.44;102736.09;5061171;28;20580;-31
2022/05/09 07:58:22;;;;;;;7.68;2.55;;;;;;;22.00;47.94;102732.63;5061129;28;20037;-34
2022/05/09 08:00:50;;;;;;;7.90;2.30;;;;;;;21.83;48.90;102737.41;5064275;28;20037;-30
2022/05/09 08:03:20;;;;;;;6.40;2.40;;;;;;;22.06;49.33;102730.47;5066284;28;20055;-34
2022/05/09 08:05:49;;;;;;;9.57;2.80;;;;;;;22.65;47.32;102728.81;5063308;28;20501;-32
2022/05/09 08:08:17;;;;;;;5.28;2.15;;;;;;;23.32;47.25;102738.75;5061295;28;20455;-31
2022/05/09 08:10:46;;;;;;;6.25;2.35;;;;;;;23.85;44.32;102737.34;5064001;28;20600;-30
2022/05/09 08:13:17;;;;;;;8.25;3.10;;;;;;;23.98;42.75;102727.72;5060460;28;20048;-32
2022/05/09 08:15:46;;;;;;;6.63;2.40;;;;;;;23.53;42.63;102730.34;5064097;28;20048;-31
2022/05/09 08:18:14;;;;;;;7.47;2.15;;;;;;;23.29;43.88;102731.72;5061242;28;20068;-31
2022/05/09 08:20:45;;;;;;;7.82;2.25;;;;;;;23.44;44.20;102727.47;5060841;28;20103;-35
2022/05/09 08:23:16;;;;;;;6.57;2.70;;;;;;;23.65;42.85;102731.25;5053901;28;20124;-31
2022/05/09 08:25:47;;;;;;;7.13;2.67;;;;;;;23.84;42.11;102732.84;5063428;28;20497;-37
2022/05/09 08:28:16;;;;;;;8.07;2.50;;;;;;;24.06;41.63;102729.69;5061729;28;20052;-37
2022/05/09 08:30:44;;;;;;;8.60;2.55;;;;;;;24.45;40.88;102730.41;5063946;28;20049;-41
2022/05/09 08:33:17;;;;;;;6.65;2.40;;;;;;;24.87;40.60;102736.91;5047798;28;20506;-30
2022/05/09 08:35:46;;;;;;;10.27;3.20;;;;;;;25.47;40.32;102724.81;5045025;28;20171;-34
2022/05/09 08:38:15;;;;;;;7.70;2.00;;;;;;;25.89;38.75;102716.03;5058622;28;20048;-35
2022/05/09 08:40:53;;;;;;;6.03;2.70;;;;;;;25.89;36.94;102714.00;5057789;28;20044;-31
2022/05/09 08:43:39;;;;;;;9.27;2.45;;;;;;;25.67;37.50;102712.47;5059334;28;20056;-29
2022/05/09 08:46:14;;;;;;;8.05;2.35;;;;;;;25.98;36.91;102714.69;5062887;28;20052;-30
2022/05/09 08:48:58;;;;;;;6.88;2.38;;;;;;;26.36;35.17;102711.44;5049057;28;21245;-30
2022/05/09 08:51:40;;;;;;;7.30;2.38;;;;;;;26.39;35.18;102704.94;5062239;28;20044;-30
2022/05/09 08:54:12;;;;;;;5.80;2.13;;;;;;;26.67;36.35;102702.09;5064301;28;20041;-33
2022/05/09 08:56:45;;;;;;;5.25;2.17;;;;;;;27.08;35.21;102705.72;5051606;28;20094;-30
2022/05/09 08:59:22;;;;;;;6.78;2.50;;;;;;;26.83;35.10;102701.31;5064519;28;20064;-30
2022/05/09 09:01:54;;;;;;;6.55;2.42;;;;;;;26.50;34.57;102696.69;5061273;28;20047;-34
2022/05/09 09:04:24;;;;;;;9.00;2.45;;;;;;;26.27;33.34;102698.41;5063931;28;20056;-33
2022/05/09 09:07:08;;;;;;;6.80;2.28;;;;;;;26.03;32.64;102694.41;5062281;28;20052;-29
2022/05/09 09:09:55;;;;;;;7.57;2.50;;;;;;;26.45;35.09;102694.09;5054431;28;20558;-31
2022/05/09 09:12:34;;;;;;;7.60;2.10;;;;;;;26.83;30.81;102692.72;5053020;28;20058;-36
2022/05/09 09:15:10;;;;;;;6.85;1.95;;;;;;;26.48;32.68;102681.91;5064171;28;20044;-30
2022/05/09 09:17:55;;;;;;;6.70;1.85;;;;;;;26.13;32.38;102684.50;5062073;28;20073;-34
2022/05/09 09:20:26;;;;;;;9.75;2.10;;;;;;;26.18;33.75;102672.78;5064807;28;20083;-31
2022/05/09 09:23:04;;;;;;;7.25;2.20;;;;;;;26.76;34.14;102671.28;5068769;28;20072;-31
2022/05/09 09:25:40;;;;;;;5.90;1.85;;;;;;;27.52;32.21;102677.81;5079188;28;20471;-31
2022/05/09 09:28:12;;;;;;;6.10;2.17;;;;;;;27.74;29.83;102668.56;5061793;28;20052;-30
2022/05/09 09:30:41;;;;;;;6.97;2.20;;;;;;;27.50;30.99;102671.63;5063893;28;20127;-30
2022/05/09 09:33:13;;;;;;;5.13;1.90;;;;;;;27.72;31.72;102668.09;5061732;28;20493;-32
2022/05/09 09:35:50;;;;;;;6.47;2.00;;;;;;;28.25;31.14;102665.63;5064704;28;20044;-33
2022/05/09 09:38:33;;;;;;;7.53;2.55;;;;;;;28.71;30.27;102662.91;5061642;28;20055;-37
2022/05/09 09:41:16;;;;;;;7.05;2.03;;;;;;;28.92;29.53;102671.97;5064424;28;20048;-37
2022/05/09 09:43:48;;;;;;;5.28;1.75;;;;;;;29.12;30.67;102673.56;5060919;28;20056;-33
2022/05/09 09:46:16;;;;;;;5.60;2.20;;;;;;;29.17;29.41;102662.97;5064377;28;20057;-38
2022/05/09 09:48:44;;;;;;;4.95;2.20;;;;;;;29.10;29.83;102657.91;5061431;28;20041;-32
2022/05/09 09:51:17;;;;;;;5.78;1.92;;;;;;;29.33;29.90;102649.28;5063386;28;20497;-29
2022/05/09 09:54:01;;;;;;;6.13;2.25;;;;;;;29.52;29.89;102643.47;5061253;28;20433;-34
2022/05/09 09:56:32;;;;;;;7.03;1.83;;;;;;;29.92;29.91;102642.00;5064159;28;20405;-30
2022/05/09 09:59:20;;;;;;;5.25;1.88;;;;;;;30.27;27.03;102642.50;5060427;28;20045;-31
2022/05/09 10:02:03;;;;;;;4.38;1.73;;;;;;;29.87;27.60;102640.28;5063763;28;20044;-32
2022/05/09 10:04:32;;;;;;;6.85;2.28;;;;;;;29.47;30.51;102649.53;5060233;28;20552;-30
2022/05/09 10:07:03;;;;;;;5.63;1.90;;;;;;;29.71;30.46;102642.50;5064028;28;20056;-32
2022/05/09 10:09:37;;;;;;;6.15;2.17;;;;;;;30.06;30.37;102636.47;5061103;28;20040;-33
2022/05/09 10:12:21;;;;;;;6.60;2.00;;;;;;;30.53;28.69;102629.25;5063279;28;20053;-33
2022/05/09 10:14:51;;;;;;;5.50;2.13;;;;;;;30.83;28.55;102630.00;5059953;28;20384;-31
2022/05/09 10:17:27;;;;;;;5.18;1.80;;;;;;;30.46;28.32;102627.09;5058670;28;20055;-34
2022/05/09 10:19:57;;;;;;;5.88;1.98;;;;;;;30.34;29.19;102619.56;5064197;28;20523;-30
2022/05/09 10:25:22;;;;;;;6.30;2.30;;;;;;;30.14;28.49;102613.13;5059032;28;20087;-31
2022/05/09 10:28:05;;;;;;;6.93;1.92;;;;;;;30.57;27.64;102619.44;5062392;28;20073;-30
2022/05/09 10:30:37;;;;;;;5.05;1.75;;;;;;;30.89;27.99;102611.13;5059528;28;20052;-30
2022/05/09 10:33:11;;;;;;;5.40;1.90;;;;;;;31.05;27.78;102614.56;5061741;28;20049;-35
2022/05/09 10:35:43;;;;;;;5.75;1.70;;;;;;;31.24;27.82;102616.41;5057786;28;20044;-34
2022/05/09 10:38:15;;;;;;;7.65;1.70;;;;;;;31.25;27.52;102609.41;5062450;28;20072;-30
2022/05/09 10:40:47;;;;;;;6.57;2.00;;;;;;;31.08;27.64;102608.00;5058270;28;20048;-30
2022/05/09 10:43:24;;;;;;;6.13;2.08;;;;;;;31.01;26.33;102602.16;5062384;28;20506;-38
2022/05/09 10:45:54;;;;;;;4.82;1.85;;;;;;;30.58;25.17;102597.19;5059304;28;20045;-30
2022/05/09 10:48:34;;;;;;;4.53;2.03;;;;;;;29.59;25.50;102590.94;5061708;28;20078;-30
2022/05/09 10:51:07;;;;;;;;;;;;;;;28.88;23.79;102604.13;5059472;28;20057;-30
2022/05/09 10:53:41;;;;;;;6.00;2.80;;;;;;;28.83;27.54;102605.25;5061432;28;19947;-31
2022/05/09 10:56:15;;;;;;;5.30;2.40;;;;;;;29.16;26.80;102587.38;5059597;28;20087;-30
2022/05/09 10:58:47;;;;;;;6.97;2.58;;;;;;;29.36;26.71;102590.97;5063025;28;20056;-32
2022/05/09 11:01:21;;;;;;;5.15;2.05;;;;;;;29.48;26.73;102588.75;5059245;28;20037;-30
2022/05/09 11:03:49;;;;;;;6.85;2.70;;;;;;;29.38;26.29;102588.53;5063092;28;20131;-30
2022/05/09 11:06:29;;;;;;;4.95;2.20;;;;;;;29.11;24.39;102593.44;5059774;28;20060;-32
2022/05/09 11:09:15;;;;;;;4.13;1.58;;;;;;;28.88;26.39;102586.88;5061930;28;20048;-30
2022/05/09 11:12:00;;;;;;;6.03;1.58;;;;;;;28.98;26.56;102587.03;5068134;28;20041;-31
2022/05/09 11:14:34;;;;;;;6.50;2.20;;;;;;;29.19;26.80;102589.47;5058882;28;20036;-30
2022/05/09 11:17:27;;;;;;;5.05;2.08;;;;;;;29.46;26.17;102585.41;5059583;28;20049;-29
2022/05/09 11:20:07;;;;;;;4.40;2.25;;;;;;;29.74;26.52;102589.94;5062686;28;20049;-32
2022/05/09 11:22:39;;;;;;;4.28;1.67;;;;;;;30.00;26.47;102592.78;5065070;28;20456;-39
2022/05/09 11:25:22;;;;;;;4.47;2.00;;;;;;;30.07;26.04;102583.41;5061946;28;20517;-31
2022/05/09 11:27:59;;;;;;;6.47;2.35;;;;;;;29.85;26.64;102582.25;5065074;28;20409;-30
2022/05/09 11:30:35;;;;;;;8.88;2.67;;;;;;;29.85;26.51;102579.38;5056542;28;20058;-32
2022/05/09 11:33:20;;;;;;;5.07;1.75;;;;;;;30.06;26.34;102570.22;5064888;28;20485;-35
2022/05/09 11:35:53;;;;;;;4.47;1.67;;;;;;;30.23;26.85;102563.84;5058882;28;20049;-35
2022/05/09 11:38:30;;;;;;;6.13;2.13;;;;;;;30.29;25.60;102565.16;5062043;28;20512;-35
2022/05/09 11:41:08;;;;;;;5.13;2.20;;;;;;;30.02;26.86;102561.53;5063832;28;20473;-29
2022/05/09 11:43:52;;;;;;;5.30;1.95;;;;;;;30.11;26.06;102564.13;5040559;28;20049;-31
2022/05/09 11:46:38;;;;;;;3.80;1.48;;;;;;;30.15;25.94;102547.72;5059038;28;20041;-30
2022/05/09 11:49:41;;;;;;;5.57;1.90;;;;;;;30.11;25.13;102546.84;5047699;28;20159;-30